Metar Cercanos

 

LEPA - Palma De Mallorc, Spain
Distance from station: ONO 38km
Actualización: Tue, 28-Sep-2021 10:30pm CEST
Few Clouds
Few Clouds
 Viento del ENE
Viento: ENE 6 km/h
Temperatura: 21°C
Rocío: 18°C
Humedad: 83%
Barómetro: 1020 hPa
Clouds: Few Clouds
Visibility: 10 km
Cloud details: Few Clouds 671 m
2021/09/28 20:30 LEPA 282030Z 07003KT 9999 FEW022 21/18 Q1020 NOSIG
LEMH - Mahon/Menorca Is, Spain
Distance from station: ENE 105km
Actualización: Tue, 28-Sep-2021 10:30pm CEST
Despejado
Despejado
 Viento del ESE
Viento: ESE 4 km/h
Temperatura: 21°C
Rocío: 18°C
Humedad: 83%
Barómetro: 1020 hPa
Resumen: Despejado
Visibility: greater than 10 km
2021/09/28 20:30 LEMH 282030Z 12002KT CAVOK 21/18 Q1020
 
LEIB - Ibiza/Es Codola, Spain
Distance from station: OSO 165km
Actualización: Tue, 28-Sep-2021 10:30pm CEST
Few Clouds
Few Clouds
 Viento del NNO
Viento: NNO 6 km/h
Temperatura: 21°C
Rocío: 18°C
Humedad: 83%
Barómetro: 1020 hPa
Clouds: Few Clouds
Visibility: 10 km
Cloud details: Few Clouds 457 m
2021/09/28 20:30 LEIB 282030Z 33003KT 260V010 9999 FEW015 21/18 Q1020 NOSIG
LEBL - Barcelona Airpor, Spain
Distance from station: NNO 225km
Actualización: Tue, 28-Sep-2021 10:30pm CEST
Few Clouds
Few Clouds
 Viento del O
Viento: O 9 km/h
Temperatura: 22°C
Rocío: 19°C
Humedad: 83%
Barómetro: 1020 hPa
Clouds: Few Clouds
Visibility: 10 km
Cloud details: Few Clouds 671 m
2021/09/28 20:30 LEBL 282030Z 26005KT 9999 FEW022 22/19 Q1020 NOSIG
 
LEVC - Valencia (civ/Mi, Spain
Distance from station: NO 188km
Actualización: Tue, 28-Sep-2021 10:30pm CEST
Parcialmente nuboso
Parcialmente nuboso
 Viento del NO
Viento: NO 7 km/h
Temperatura: 22°C
Rocío: 20°C
Humedad: 88%
Barómetro: 1020 hPa
Clouds: Parcialmente nuboso
Visibility: 9 km
2021/09/28 20:30 LEVC 282030Z 31004KT 280V340 9000 NSC 22/20 Q1020 NOSIG
LEGE - Gerona/Costa Bra, Spain
Distance from station: N 276km
Actualización: Tue, 28-Sep-2021 10:30pm CEST
Despejado
Despejado
 Viento del NNE
Viento: NNE 11 km/h
Temperatura: 19°C
Rocío: 16°C
Humedad: 83%
Barómetro: 1019 hPa
Resumen: Despejado
Visibility: greater than 10 km
2021/09/28 20:30 LEGE 282030Z 02006KT CAVOK 19/16 Q1019
 
LEAL - Alicante/El Alte, Spain
Distance from station: OSO 344km
Actualización: Tue, 28-Sep-2021 10:30pm CEST
Despejado
Despejado
 Viento del ONO
Viento: ONO 6 km/h
Temperatura: 22°C
Rocío: 18°C
Humedad: 78%
Barómetro: 1021 hPa
Resumen: Despejado
Visibility: greater than 10 km
2021/09/28 20:30 LEAL 282030Z 30003KT 250V340 CAVOK 22/18 Q1021 NOSIG
LEAM - Almeria Airport, Spain
Distance from station: SSO 56km
Actualización: Tue, 28-Sep-2021 10:30pm CEST
Few Clouds
Few Clouds
 Viento del O
Viento: O 6 km/h
Temperatura: 23°C
Rocío: 18°C
Humedad: 74%
Barómetro: 1021 hPa
Clouds: Few Clouds
Visibility: 10 km
Cloud details: Few Clouds 610 m
2021/09/28 20:30 LEAM 282030Z 26003KT 9999 FEW020 23/18 Q1021
 
LEZG - Zaragoza (mil/Ci, Spain
Distance from station: NO 431km
Actualización: Tue, 28-Sep-2021 10:30pm CEST
Parcialmente nuboso
Parcialmente nuboso
 Viento del O
Viento: O 15 km/h
Temperatura: 20°C
Rocío: 15°C
Humedad: 73%
Barómetro: 1021 hPa
Clouds: Parcialmente nuboso
Visibility: 10 km
Cloud details: Parcialmente nuboso 2438 m
2021/09/28 20:30 LEZG 282030Z 27008KT 9999 SCT080 20/15 Q1021
LEMD - Madrid/Barajas, Spain
Distance from station: ONO 234km
Actualización: Tue, 28-Sep-2021 10:30pm CEST
Despejado
Despejado
 Viento del O
Viento: O 7 km/h
Temperatura: 20°C
Rocío: 7°C
Humedad: 43%
Barómetro: 1022 hPa
Resumen: Despejado
Visibility: greater than 10 km
2021/09/28 20:30 LEMD 282030Z 26004KT CAVOK 20/07 Q1022 NOSIG
 
LEGR - Granada Airport, Spain
Distance from station: OSO 62km
Actualización: Tue, 28-Sep-2021 10:30pm CEST
Despejado
Despejado
 Viento del S
Viento: S 6 km/h
Temperatura: 19°C
Rocío: 9°C
Humedad: 52%
Barómetro: 1023 hPa
Resumen: Despejado
Visibility: greater than 10 km
2021/09/28 20:30 LEGR 282030Z 18003KT CAVOK 19/09 Q1023
LEMG - Malaga (civ/Mil), Spain
Distance from station: OSO 227km
Actualización: Tue, 28-Sep-2021 10:30pm CEST
Despejado
Despejado
 Viento del NNE
Viento: NNE 6 km/h
Temperatura: 22°C
Rocío: 20°C
Humedad: 88%
Barómetro: 1021 hPa
Resumen: Despejado
Visibility: greater than 10 km
2021/09/28 20:30 LEMG 282030Z 03003KT 350V070 CAVOK 22/20 Q1021 NOSIG
 
LEZL - Sevilla (civ/Mil, Spain
Distance from station: S 318km
Actualización: Tue, 28-Sep-2021 10:30pm CEST
Despejado
Despejado
 Viento del SSO
Viento: SSO 11 km/h
Temperatura: 24°C
Rocío: 15°C
Humedad: 57%
Barómetro: 1021 hPa
Resumen: Despejado
Visibility: greater than 10 km
2021/09/28 20:30 LEZL 282030Z 21006KT CAVOK 24/15 Q1021 NOSIG
LEVT - Vitoria, Spain
Distance from station: NO 226km
Actualización: Tue, 28-Sep-2021 10:30pm CEST
Cubierto
Cubierto
 Viento del N
Viento: N 11 km/h
Temperatura: 15°C
Rocío: 13°C
Humedad: 88%
Barómetro: 1025 hPa
Clouds: Cubierto
Visibility: 7 km
Cloud details: Parcialmente nuboso 335 m
Muy nuboso 488 m
Cubierto 823 m
2021/09/28 20:30 LEVT 282030Z 01006KT 7000 SCT011 BKN016 OVC027 15/13 Q1025
 
LEBB - Bilbao/Sondica, Spain
Distance from station: NNO 235km
Actualización: Tue, 28-Sep-2021 10:30pm CEST
Muy nuboso
Muy nuboso
 Viento del varies
Viento: varies 4 km/h
Temperatura: 17°C
Rocío: 16°C
Humedad: 94%
Barómetro: 1025 hPa
Clouds: Muy nuboso
Visibility: 10 km
Cloud details: Few Clouds 762 m
Muy nuboso 1524 m
2021/09/28 20:30 LEBB 282030Z VRB02KT 9999 FEW025 BKN050 17/16 Q1025 NOSIG
LESO - San Sebastian/Fu, Spain
Distance from station: N 231km
Actualización: Tue, 28-Sep-2021 10:30pm CEST
Lluvia, Mist, Muy nuboso
Lluvia, Mist, Muy nuboso
 Viento del SO
Viento: SO 9 km/h
Temperatura: 17°C
Rocío: 17°C
Humedad: 100%
Barómetro: 1024 hPa
Resumen: Lluvia, Mist
Clouds: Muy nuboso
Visibility: 2 km
Cloud details: Parcialmente nuboso 335 m
Muy nuboso 549 m
Muy nuboso 732 m
2021/09/28 20:30 LESO 282030Z AUTO 23005KT 180V290 2000 RA BR SCT011 BKN018 BKN024 17/17 Q1024
 
LEVD - Valladolid(Mil/C, Spain
Distance from station: ONO 239km
Actualización: Tue, 28-Sep-2021 10:30pm CEST
Despejado
Despejado
 Viento del ONO
Viento: ONO 13 km/h
Temperatura: 14°C
Rocío: 9°C
Humedad: 72%
Barómetro: 1025 hPa
Resumen: Despejado
Visibility: greater than 10 km
2021/09/28 20:30 LEVD 282030Z AUTO 29007KT 260V320 CAVOK 14/09 Q1025
LESA - Salamanca (civ/M, Spain
Distance from station: ONO 349km
Actualización: Tue, 28-Sep-2021 10:30pm CEST
Despejado
Despejado
 Viento del O
Viento: O 7 km/h
Temperatura: 13°C
Rocío: 9°C
Humedad: 77%
Barómetro: 1025 hPa
Resumen: Despejado
Visibility: greater than 10 km
2021/09/28 20:30 LESA 282030Z AUTO 26004KT CAVOK 13/09 Q1025
 
LEXJ - Santander/Paraya, Spain
Distance from station: NNO 247km
Actualización: Tue, 28-Sep-2021 10:30pm CEST
Muy nuboso
Muy nuboso
 Viento del SO
Viento: SO 13 km/h
Temperatura: 16°C
Rocío: 14°C
Humedad: 88%
Barómetro: 1025 hPa
Clouds: Muy nuboso
Visibility: 10 km
Cloud details: Few Clouds 1097 m
Muy nuboso 1737 m
2021/09/28 20:30 LEXJ 282030Z 22007KT 190V270 9999 FEW036 BKN057 16/14 Q1025
LEAS - Asturias/Aviles, Spain
Distance from station: NO 214km
Actualización: Tue, 28-Sep-2021 10:30pm CEST
Few Clouds
Few Clouds
 Viento del SO
Viento: SO 11 km/h
Temperatura: 14°C
Rocío: 11°C
Humedad: 82%
Barómetro: 1026 hPa
Clouds: Few Clouds
Visibility: 10 km
Cloud details: Few Clouds 914 m
2021/09/28 20:30 LEAS 282030Z 23006KT 9999 FEW030 14/11 Q1026 NOSIG
 
LECO - La Coruna/Alvedr, Spain
Distance from station: ONO 222km
Actualización: Tue, 28-Sep-2021 10:30pm CEST
Despejado
Despejado
 Viento del S
Viento: S 9 km/h
Temperatura: 16°C
Rocío: 12°C
Humedad: 77%
Barómetro: 1026 hPa
Resumen: Despejado
Visibility: greater than 10 km
2021/09/28 20:30 LECO 282030Z 19005KT CAVOK 16/12 Q1026 NOSIG
LEVX - Vigo/Peinador, Spain
Distance from station: O 214km
Actualización: Tue, 28-Sep-2021 10:30pm CEST
Despejado
Despejado
 Viento del varies
Viento: varies 2 km/h
Temperatura: 14°C
Rocío: 11°C
Humedad: 82%
Barómetro: 1027 hPa
Resumen: Despejado
Visibility: greater than 10 km
2021/09/28 20:30 LEVX 282030Z VRB01KT CAVOK 14/11 Q1027 NOSIG